createdAt,value
2023-02-12T00:01:29.233Z,21.17
2023-02-12T00:03:59.276Z,19.77
2023-02-12T00:06:28.032Z,20.50
2023-02-12T00:08:57.995Z,19.93
2023-02-12T00:11:27.873Z,22.47
2023-02-12T00:13:57.191Z,22.40
2023-02-12T00:16:28.646Z,22.67
2023-02-12T00:19:00.123Z,22.83
2023-02-12T00:21:28.908Z,23.37
2023-02-12T00:23:58.832Z,24.60
2023-02-12T00:26:27.170Z,23.67
2023-02-12T00:28:56.439Z,23.43
2023-02-12T00:31:26.443Z,23.47
2023-02-12T00:34:00.457Z,24.67
2023-02-12T00:36:30.879Z,24.43
2023-02-12T00:39:01.535Z,24.23
2023-02-12T00:41:30.683Z,23.00
2023-02-12T00:43:59.395Z,24.40
2023-02-12T00:46:28.462Z,26.03
2023-02-12T00:48:58.212Z,24.63
2023-02-12T00:51:26.650Z,23.83
2023-02-12T00:53:55.118Z,22.90
2023-02-12T00:56:23.449Z,25.30
2023-02-12T00:58:51.929Z,25.20
2023-02-12T01:01:20.430Z,25.53
2023-02-12T01:03:48.806Z,25.77
2023-02-12T01:06:18.440Z,25.37
2023-02-12T01:08:51.810Z,24.93
2023-02-12T01:11:20.857Z,25.23
2023-02-12T01:13:50.159Z,26.60
2023-02-12T01:16:22.845Z,26.13
2023-02-12T01:18:55.537Z,24.43
2023-02-12T01:21:29.185Z,24.60
2023-02-12T01:23:58.379Z,24.27
2023-02-12T01:26:28.259Z,23.40
2023-02-12T01:28:58.391Z,24.23
2023-02-12T01:31:29.158Z,23.93
2023-02-12T01:33:59.748Z,25.13
2023-02-12T01:36:30.925Z,25.00
2023-02-12T01:38:59.476Z,24.63
2023-02-12T01:41:30.145Z,23.97
2023-02-12T01:44:13.647Z,22.50
2023-02-12T01:46:43.146Z,23.03
2023-02-12T01:49:16.506Z,22.37
2023-02-12T01:51:49.795Z,23.80
2023-02-12T01:54:23.077Z,22.73
2023-02-12T01:56:51.469Z,22.60
2023-02-12T01:59:21.805Z,21.10
2023-02-12T02:01:50.291Z,20.27
2023-02-12T02:04:23.207Z,22.83
2023-02-12T02:06:58.009Z,21.53
2023-02-12T02:09:27.731Z,23.70
2023-02-12T02:12:14.786Z,22.37
2023-02-12T02:14:44.317Z,22.13
2023-02-12T02:17:37.700Z,22.40
2023-02-12T02:20:34.850Z,21.20
2023-02-12T02:23:31.987Z,19.80
2023-02-12T02:26:27.571Z,19.67
2023-02-12T02:29:12.058Z,21.07
2023-02-12T02:31:45.628Z,19.10
2023-02-12T02:34:20.890Z,19.37
2023-02-12T02:37:00.555Z,18.47
2023-02-12T02:39:36.322Z,20.47
2023-02-12T02:42:11.244Z,21.77
2023-02-12T02:44:45.052Z,22.03
2023-02-12T02:47:17.285Z,21.77
2023-02-12T02:49:49.264Z,20.90
2023-02-12T02:52:21.482Z,21.00
2023-02-12T02:54:53.982Z,23.13
2023-02-12T02:57:26.713Z,22.30
2023-02-12T02:59:59.716Z,21.33
2023-02-12T03:02:33.992Z,21.60
2023-02-12T03:05:07.511Z,23.17
2023-02-12T03:07:39.786Z,23.20
2023-02-12T03:10:14.741Z,23.27
2023-02-12T03:12:48.920Z,22.23
2023-02-12T03:15:24.616Z,19.87
2023-02-12T03:17:54.497Z,21.00
2023-02-12T03:20:27.563Z,20.70
2023-02-12T03:23:01.839Z,22.77
2023-02-12T03:25:35.765Z,20.83
2023-02-12T03:28:08.674Z,20.70
2023-02-12T03:30:46.716Z,19.83
2023-02-12T03:33:23.644Z,20.83
2023-02-12T03:36:00.811Z,20.40
2023-02-12T03:38:38.076Z,22.37
2023-02-12T03:41:11.068Z,21.40
2023-02-12T03:43:50.385Z,21.93
2023-02-12T03:46:24.206Z,23.10
2023-02-12T03:49:02.456Z,25.40
2023-02-12T03:51:36.274Z,22.83
2023-02-12T03:54:06.157Z,22.90
2023-02-12T03:56:39.667Z,22.57
2023-02-12T03:59:08.417Z,22.97
2023-02-12T04:01:37.927Z,22.20
2023-02-12T04:04:09.732Z,22.47
2023-02-12T04:06:38.264Z,20.70
2023-02-12T04:09:10.185Z,22.10
2023-02-12T04:11:49.223Z,22.73
2023-02-12T04:14:25.989Z,23.73
2023-02-12T04:17:04.674Z,23.60
2023-02-12T04:19:44.368Z,23.53
2023-02-12T04:22:31.106Z,22.53
2023-02-12T04:25:07.698Z,23.53
2023-02-12T04:27:44.050Z,23.20
2023-02-12T04:30:20.284Z,23.50
2023-02-12T04:32:52.067Z,23.50
2023-02-12T04:35:26.143Z,24.17
2023-02-12T04:38:00.794Z,23.13
2023-02-12T04:40:29.738Z,22.97
2023-02-12T04:42:58.239Z,21.60
2023-02-12T04:45:29.274Z,21.47
2023-02-12T04:47:57.979Z,24.33
2023-02-12T04:50:29.517Z,23.83
2023-02-12T04:52:57.937Z,23.63
2023-02-12T04:55:26.255Z,23.67
2023-02-12T04:57:54.649Z,24.10
2023-02-12T05:00:23.316Z,23.43
2023-02-12T05:02:51.738Z,25.17
2023-02-12T05:05:20.102Z,22.47
2023-02-12T05:07:49.817Z,23.33
2023-02-12T05:10:18.327Z,21.83
2023-02-12T05:12:46.720Z,23.87
2023-02-12T05:15:15.175Z,21.03
2023-02-12T05:17:44.904Z,20.30
2023-02-12T05:20:14.153Z,19.57
2023-02-12T05:22:42.777Z,19.60
2023-02-12T05:25:12.790Z,21.17
2023-02-12T05:27:41.156Z,19.90
2023-02-12T05:30:10.691Z,22.03
2023-02-12T05:32:39.097Z,20.17
2023-02-12T05:35:08.936Z,19.03
2023-02-12T05:37:37.959Z,20.10
2023-02-12T05:40:09.052Z,16.77
2023-02-12T05:42:39.378Z,25.07
2023-02-12T05:45:08.478Z,21.07
2023-02-12T05:47:36.856Z,19.87
2023-02-12T05:50:05.651Z,19.73
2023-02-12T05:52:34.740Z,21.60
2023-02-12T05:55:03.024Z,20.53
2023-02-12T05:57:31.410Z,22.00
2023-02-12T06:00:01.020Z,22.47
2023-02-12T06:02:29.896Z,21.17
2023-02-12T06:04:58.331Z,22.07
2023-02-12T06:07:26.703Z,23.93
2023-02-12T06:09:55.239Z,22.87
2023-02-12T06:12:23.644Z,23.47
2023-02-12T06:14:52.306Z,24.27
2023-02-12T06:17:22.004Z,27.87
2023-02-12T06:19:50.476Z,22.37
2023-02-12T06:22:18.820Z,22.30
2023-02-12T06:24:47.181Z,22.13
2023-02-12T06:27:15.461Z,21.23
2023-02-12T06:29:44.033Z,19.33
2023-02-12T06:32:13.762Z,21.10
2023-02-12T06:34:43.513Z,18.33
2023-02-12T06:37:12.885Z,17.80
2023-02-12T06:39:41.244Z,17.17
2023-02-12T06:42:09.661Z,16.30
2023-02-12T06:44:38.012Z,15.43
2023-02-12T06:47:06.420Z,15.70
2023-02-12T06:49:34.829Z,16.17
2023-02-12T06:52:04.497Z,16.23
2023-02-12T06:54:32.910Z,15.77
2023-02-12T06:57:01.239Z,15.47
2023-02-12T06:59:29.652Z,16.00
2023-02-12T07:01:57.949Z,15.03
2023-02-12T07:04:26.345Z,15.93
2023-02-12T07:06:54.693Z,16.07
2023-02-12T07:09:24.386Z,17.27
2023-02-12T07:11:53.519Z,17.90
2023-02-12T07:14:21.824Z,16.77
2023-02-12T07:16:50.269Z,17.03
2023-02-12T07:19:18.717Z,15.97
2023-02-12T07:21:47.100Z,15.73
2023-02-12T07:24:18.315Z,16.40
2023-02-12T07:26:48.243Z,15.63
2023-02-12T07:29:17.284Z,16.23
2023-02-12T07:31:45.613Z,15.73
2023-02-12T07:34:14.069Z,14.30
2023-02-12T07:36:42.543Z,15.53
2023-02-12T07:39:13.280Z,16.20
2023-02-12T07:41:41.760Z,14.70
2023-02-12T07:44:13.617Z,14.57
2023-02-12T07:46:46.961Z,15.47
2023-02-12T07:49:18.279Z,14.37
2023-02-12T07:51:47.402Z,12.50
2023-02-12T07:54:15.898Z,14.20
2023-02-12T07:56:47.466Z,12.37
2023-02-12T07:59:18.775Z,12.60
2023-02-12T08:01:48.897Z,12.53
2023-02-12T08:04:20.261Z,13.20
2023-02-12T08:06:50.567Z,13.70
2023-02-12T08:09:20.836Z,13.73
2023-02-12T08:11:49.989Z,13.17
2023-02-12T08:14:22.231Z,15.00
2023-02-12T08:16:51.870Z,14.20
2023-02-12T08:19:24.893Z,13.87
2023-02-12T08:21:55.972Z,14.07
2023-02-12T08:24:25.089Z,14.10
2023-02-12T08:26:54.162Z,13.60
2023-02-12T08:29:26.086Z,13.83
2023-02-12T08:31:58.355Z,13.57
2023-02-12T08:34:28.599Z,12.77
2023-02-12T08:36:57.953Z,12.77
2023-02-12T08:39:28.540Z,14.30
2023-02-12T08:41:58.011Z,13.73
2023-02-12T08:44:27.805Z,13.80
2023-02-12T08:46:56.814Z,12.77
2023-02-12T08:49:27.448Z,14.27
2023-02-12T08:51:57.776Z,11.17
2023-02-12T08:54:28.088Z,11.37
2023-02-12T08:56:57.821Z,12.27
2023-02-12T08:59:27.902Z,12.10
2023-02-12T09:01:56.760Z,11.23
2023-02-12T09:04:28.248Z,10.73
2023-02-12T09:06:57.445Z,10.73
2023-02-12T09:09:26.015Z,10.30
2023-02-12T09:11:54.329Z,10.85
2023-02-12T09:14:25.124Z,11.07
2023-02-12T09:16:57.490Z,9.30
2023-02-12T09:19:26.466Z,9.38
2023-02-12T09:21:56.779Z,9.65
2023-02-12T09:24:27.965Z,9.27
2023-02-12T09:26:56.637Z,9.07
2023-02-12T09:29:25.094Z,8.43
2023-02-12T09:31:55.003Z,10.40
2023-02-12T09:34:23.536Z,9.43
2023-02-12T09:36:51.928Z,8.40
2023-02-12T09:39:20.303Z,8.87
2023-02-12T09:42:05.534Z,8.35
2023-02-12T09:44:41.825Z,8.70
2023-02-12T09:47:18.584Z,8.95
2023-02-12T09:50:00.056Z,8.25
2023-02-12T09:52:30.243Z,8.50
2023-02-12T09:54:59.633Z,9.00
2023-02-12T09:57:33.638Z,8.70
2023-02-12T10:00:06.585Z,8.40
2023-02-12T10:02:39.339Z,8.93
2023-02-12T10:05:17.524Z,8.82
2023-02-12T10:08:07.406Z,8.10
2023-02-12T10:10:48.809Z,8.60
2023-02-12T10:13:28.028Z,7.50
2023-02-12T10:16:02.346Z,8.55
2023-02-12T10:18:51.222Z,8.60
2023-02-12T10:21:28.126Z,8.40
2023-02-12T10:24:07.917Z,9.00
2023-02-12T10:26:41.023Z,8.57
2023-02-12T10:29:15.968Z,9.20
2023-02-12T10:31:47.386Z,8.40
2023-02-12T10:34:22.184Z,9.57
2023-02-12T10:36:54.271Z,8.60
2023-02-12T10:39:25.368Z,8.63
2023-02-12T10:41:59.476Z,8.17
2023-02-12T10:44:28.084Z,8.60
2023-02-12T10:46:56.747Z,8.47
2023-02-12T10:49:26.551Z,8.37
2023-02-12T10:52:09.870Z,8.50
2023-02-12T10:54:41.848Z,8.90
2023-02-12T10:57:16.557Z,9.00
2023-02-12T10:59:47.035Z,9.87
2023-02-12T11:02:27.798Z,9.57
2023-02-12T11:04:59.423Z,9.20
2023-02-12T11:07:30.109Z,9.00
2023-02-12T11:09:58.908Z,8.73
2023-02-12T11:12:35.984Z,8.40
2023-02-12T11:15:09.093Z,8.00
2023-02-12T11:17:39.509Z,8.20
2023-02-12T11:20:28.173Z,8.47
2023-02-12T11:22:59.631Z,8.80
2023-02-12T11:25:30.077Z,8.90
2023-02-12T11:28:14.232Z,9.30
2023-02-12T11:30:54.678Z,9.23
2023-02-12T11:33:29.702Z,8.40
2023-02-12T11:36:05.631Z,8.32
2023-02-12T11:38:38.682Z,8.27
2023-02-12T11:41:20.700Z,8.20
2023-02-12T11:43:50.063Z,7.20
2023-02-12T11:46:24.086Z,8.30
2023-02-12T11:48:54.675Z,7.83
2023-02-12T11:51:29.320Z,8.10
2023-02-12T11:54:00.851Z,8.13
2023-02-12T11:56:43.829Z,8.90
2023-02-12T11:59:33.198Z,8.33
2023-02-12T12:02:07.177Z,9.13
2023-02-12T12:04:37.234Z,8.97
2023-02-12T12:07:15.040Z,9.52
2023-02-12T12:09:47.558Z,8.95
2023-02-12T12:12:22.738Z,9.30
2023-02-12T12:15:12.526Z,9.27
2023-02-12T12:18:05.714Z,8.43
2023-02-12T12:20:40.160Z,9.37
2023-02-12T12:23:17.269Z,8.17
2023-02-12T12:25:50.561Z,8.43
2023-02-12T12:28:33.720Z,8.53
2023-02-12T12:31:09.535Z,8.47
2023-02-12T12:33:44.457Z,8.87
2023-02-12T12:36:43.621Z,9.07
2023-02-12T12:39:28.201Z,9.30
2023-02-12T12:42:26.706Z,9.37
2023-02-12T12:45:16.813Z,9.32
2023-02-12T12:48:01.351Z,9.30
2023-02-12T12:50:48.450Z,9.20
2023-02-12T12:53:26.405Z,8.70
2023-02-12T12:56:23.122Z,9.00
2023-02-12T12:59:12.681Z,8.97
2023-02-12T13:02:22.592Z,9.05
2023-02-12T13:05:15.536Z,10.90
2023-02-12T13:07:53.966Z,10.50
2023-02-12T13:10:34.406Z,10.38
2023-02-12T13:13:16.617Z,9.90
2023-02-12T13:15:52.265Z,9.80
2023-02-12T13:18:36.177Z,10.23
2023-02-12T13:21:14.620Z,9.88
2023-02-12T13:23:52.158Z,10.77
2023-02-12T13:26:30.706Z,10.25
2023-02-12T13:29:06.999Z,8.32
2023-02-12T13:31:40.597Z,8.90
2023-02-12T13:34:15.888Z,9.37
2023-02-12T13:36:45.019Z,8.97
2023-02-12T13:39:23.981Z,8.75
2023-02-12T13:42:03.397Z,9.05
2023-02-12T13:44:41.740Z,8.90
2023-02-12T13:47:17.836Z,8.40
2023-02-12T13:49:53.699Z,8.52
2023-02-12T13:52:32.313Z,9.10
2023-02-12T13:55:12.557Z,9.00
2023-02-12T13:57:41.045Z,8.83
2023-02-12T14:00:51.653Z,8.98
2023-02-12T14:03:25.101Z,8.53
2023-02-12T14:06:12.325Z,8.30
2023-02-12T14:08:43.488Z,8.07
2023-02-12T14:11:15.057Z,8.10
2023-02-12T14:13:55.049Z,8.55
2023-02-12T14:16:40.715Z,8.82
2023-02-12T14:19:41.046Z,8.45
2023-02-12T14:22:14.484Z,8.02
2023-02-12T14:24:53.624Z,8.10
2023-02-12T14:27:32.462Z,7.80
2023-02-12T14:30:30.138Z,7.90
2023-02-12T14:33:27.427Z,8.70
2023-02-12T14:36:20.438Z,8.32
2023-02-12T14:39:01.371Z,8.60
2023-02-12T14:41:37.887Z,8.77
2023-02-12T14:44:45.826Z,8.52
2023-02-12T14:47:53.841Z,8.47
2023-02-12T14:50:29.860Z,8.87
2023-02-12T14:53:06.202Z,9.00
2023-02-12T14:55:36.461Z,8.93
2023-02-12T14:58:08.922Z,9.73
2023-02-12T15:00:40.258Z,9.30
2023-02-12T15:03:26.458Z,9.70
2023-02-12T15:06:04.073Z,10.07
2023-02-12T15:08:44.468Z,8.97
2023-02-12T15:11:29.598Z,9.90
2023-02-12T15:14:03.127Z,8.90
2023-02-12T15:16:38.973Z,9.80
2023-02-12T15:19:20.052Z,9.17
2023-02-12T15:21:54.697Z,9.00
2023-02-12T15:24:24.993Z,9.97
2023-02-12T15:26:55.380Z,10.40
2023-02-12T15:29:26.413Z,9.87
2023-02-12T15:31:57.417Z,9.20
2023-02-12T15:34:29.875Z,10.07
2023-02-12T15:37:02.014Z,9.40
2023-02-12T15:39:37.790Z,9.87
2023-02-12T15:42:06.346Z,9.77
2023-02-12T15:44:35.142Z,10.13
2023-02-12T15:47:12.819Z,9.97
2023-02-12T15:49:42.723Z,10.03
2023-02-12T15:52:20.040Z,11.10
2023-02-12T15:54:49.733Z,10.57
2023-02-12T15:57:23.524Z,11.73
2023-02-12T15:59:53.937Z,10.57
2023-02-12T16:02:28.519Z,11.77
2023-02-12T16:04:58.349Z,11.13
2023-02-12T16:07:33.230Z,11.27
2023-02-12T16:10:02.370Z,11.63
2023-02-12T16:12:36.981Z,11.50
2023-02-12T16:15:06.116Z,11.93
2023-02-12T16:17:37.012Z,11.23
2023-02-12T16:20:09.844Z,11.87
2023-02-12T16:22:42.007Z,11.40
2023-02-12T16:25:17.523Z,9.77
2023-02-12T16:27:56.832Z,10.23
2023-02-12T16:30:29.692Z,10.57
2023-02-12T16:32:58.735Z,11.07
2023-02-12T16:35:31.977Z,12.33
2023-02-12T16:38:24.630Z,12.47
2023-02-12T16:41:23.577Z,13.30
2023-02-12T16:44:13.120Z,11.87
2023-02-12T16:46:49.271Z,11.93
2023-02-12T16:49:20.914Z,13.00
2023-02-12T16:51:50.330Z,10.80
2023-02-12T16:54:31.270Z,11.50
2023-02-12T16:57:02.482Z,11.57
2023-02-12T16:59:31.240Z,10.90
2023-02-12T17:02:02.857Z,11.50
2023-02-12T17:04:31.753Z,11.60
2023-02-12T17:07:00.133Z,11.13
2023-02-12T17:09:30.495Z,10.57
2023-02-12T17:11:58.900Z,10.97
2023-02-12T17:14:27.307Z,11.27
2023-02-12T17:16:55.733Z,11.23
2023-02-12T17:19:24.117Z,11.57
2023-02-12T17:21:53.065Z,11.47
2023-02-12T17:24:24.312Z,11.80
2023-02-12T17:26:54.806Z,11.07
2023-02-12T17:29:24.822Z,13.70
2023-02-12T17:31:55.477Z,12.70
2023-02-12T17:34:24.866Z,13.20
2023-02-12T17:36:53.354Z,15.27
2023-02-12T17:39:21.863Z,13.70
2023-02-12T17:41:51.637Z,18.90
2023-02-12T17:44:21.353Z,11.27
2023-02-12T17:46:49.699Z,11.37
2023-02-12T17:49:18.167Z,12.20
2023-02-12T17:51:46.585Z,12.40
2023-02-12T17:54:17.659Z,11.57
2023-02-12T17:56:46.187Z,11.50
2023-02-12T17:59:14.620Z,12.93
2023-02-12T18:01:45.826Z,12.07
2023-02-12T18:04:14.790Z,12.90
2023-02-12T18:06:43.229Z,13.50
2023-02-12T18:09:11.544Z,11.13
2023-02-12T18:11:42.274Z,14.73
2023-02-12T18:14:12.565Z,12.00
2023-02-12T18:16:40.916Z,11.37
2023-02-12T18:19:10.663Z,11.80
2023-02-12T18:21:39.357Z,11.70
2023-02-12T18:24:08.546Z,12.50
2023-02-12T18:26:36.977Z,12.07
2023-02-12T18:29:05.532Z,11.40
2023-02-12T18:31:35.357Z,12.60
2023-02-12T18:34:05.085Z,15.07
2023-02-12T18:36:35.064Z,11.67
2023-02-12T18:39:03.548Z,13.57
2023-02-12T18:41:35.811Z,11.63
2023-02-12T18:44:05.377Z,12.83
2023-02-12T18:46:34.047Z,11.30
2023-02-12T18:49:02.751Z,12.00
2023-02-12T18:51:36.480Z,11.03
2023-02-12T18:54:08.711Z,13.37
2023-02-12T18:56:40.117Z,14.50
2023-02-12T18:59:09.716Z,53.57
2023-02-12T19:01:38.729Z,34.07
2023-02-12T19:04:09.356Z,22.27
2023-02-12T19:06:42.388Z,18.47
2023-02-12T19:09:16.818Z,16.43
2023-02-12T19:11:46.859Z,13.97
2023-02-12T19:14:15.398Z,12.80
2023-02-12T19:16:44.988Z,12.70
2023-02-12T19:19:14.510Z,15.13
2023-02-12T19:21:43.523Z,11.90
2023-02-12T19:24:15.616Z,11.90
2023-02-12T19:26:44.919Z,14.57
2023-02-12T19:29:14.127Z,13.97
2023-02-12T19:31:46.235Z,10.97
2023-02-12T19:34:17.943Z,12.07
2023-02-12T19:36:47.018Z,12.37
2023-02-12T19:39:19.039Z,12.10
2023-02-12T19:41:47.825Z,12.97
2023-02-12T19:44:19.067Z,12.47
2023-02-12T19:46:48.735Z,10.77
2023-02-12T19:49:18.995Z,11.17
2023-02-12T19:51:47.538Z,10.50
2023-02-12T19:54:18.485Z,10.77
2023-02-12T19:56:47.572Z,11.47
2023-02-12T19:59:18.293Z,11.80
2023-02-12T20:01:48.380Z,11.57
2023-02-12T20:04:19.775Z,11.40
2023-02-12T20:06:50.886Z,11.77
2023-02-12T20:09:22.114Z,13.50
2023-02-12T20:11:51.254Z,12.43
2023-02-12T20:14:20.985Z,11.10
2023-02-12T20:16:50.152Z,11.60
2023-02-12T20:19:21.385Z,11.20
2023-02-12T20:21:54.369Z,12.50
2023-02-12T20:24:25.405Z,13.83
2023-02-12T20:26:54.233Z,12.57
2023-02-12T20:29:23.460Z,12.90
2023-02-12T20:31:52.144Z,11.10
2023-02-12T20:34:22.308Z,11.60
2023-02-12T20:36:50.854Z,10.23
2023-02-12T20:39:21.412Z,12.17
2023-02-12T20:41:51.535Z,12.03
2023-02-12T20:44:21.734Z,12.40
2023-02-12T20:46:55.831Z,12.67
2023-02-12T20:49:26.511Z,12.23
2023-02-12T20:51:55.202Z,12.23
2023-02-12T20:54:24.009Z,13.70
2023-02-12T20:56:53.893Z,12.70
2023-02-12T20:59:22.352Z,11.17
2023-02-12T21:01:50.952Z,10.97
2023-02-12T21:04:20.267Z,11.10
2023-02-12T21:06:49.591Z,11.03
2023-02-12T21:09:18.882Z,10.57
2023-02-12T21:11:47.890Z,12.83
2023-02-12T21:14:25.711Z,11.30
2023-02-12T21:16:55.323Z,11.07
2023-02-12T21:19:24.213Z,11.37
2023-02-12T21:21:52.691Z,11.23
2023-02-12T21:24:23.321Z,10.07
2023-02-12T21:26:52.706Z,9.80
2023-02-12T21:29:23.492Z,11.50
2023-02-12T21:31:52.383Z,10.83
2023-02-12T21:34:23.200Z,11.30
2023-02-12T21:36:54.092Z,10.93
2023-02-12T21:39:27.224Z,10.77
2023-02-12T21:41:57.537Z,10.20
2023-02-12T21:44:27.716Z,10.80
2023-02-12T21:46:56.879Z,9.70
2023-02-12T21:49:28.848Z,10.93
2023-02-12T21:51:59.826Z,10.73
2023-02-12T21:54:29.289Z,12.60
2023-02-12T21:56:58.180Z,12.17
2023-02-12T21:59:30.146Z,11.23
2023-02-12T22:02:00.857Z,12.13
2023-02-12T22:04:29.888Z,13.33
2023-02-12T22:07:03.599Z,11.60
2023-02-12T22:09:32.375Z,11.50
2023-02-12T22:12:00.732Z,11.70
2023-02-12T22:14:30.513Z,12.33
2023-02-12T22:16:59.341Z,11.90
2023-02-12T22:19:27.774Z,11.83
2023-02-12T22:21:56.197Z,13.17
2023-02-12T22:24:24.574Z,13.57
2023-02-12T22:26:52.959Z,11.90
2023-02-12T22:29:22.928Z,15.80
2023-02-12T22:31:53.667Z,12.63
2023-02-12T22:34:22.174Z,15.00
2023-02-12T22:36:50.654Z,12.03
2023-02-12T22:39:19.414Z,12.50
2023-02-12T22:41:48.245Z,13.60
2023-02-12T22:44:19.964Z,13.53
2023-02-12T22:46:49.935Z,12.37
2023-02-12T22:49:19.644Z,12.33
2023-02-12T22:51:48.039Z,12.90
2023-02-12T22:54:18.009Z,13.47
2023-02-12T22:56:47.180Z,12.60
2023-02-12T22:59:15.653Z,13.17
2023-02-12T23:01:43.969Z,15.13
2023-02-12T23:04:16.827Z,14.67
2023-02-12T23:06:46.801Z,12.70
2023-02-12T23:09:18.155Z,14.57
2023-02-12T23:11:46.553Z,20.10
2023-02-12T23:14:15.512Z,13.90
2023-02-12T23:16:43.923Z,18.73
2023-02-12T23:19:12.890Z,19.00
2023-02-12T23:21:41.517Z,16.50
2023-02-12T23:24:13.945Z,16.13
2023-02-12T23:26:42.337Z,15.40
2023-02-12T23:29:10.884Z,15.60
2023-02-12T23:31:39.570Z,15.27
2023-02-12T23:34:07.989Z,13.33
2023-02-12T23:36:36.342Z,15.27
2023-02-12T23:39:06.294Z,15.70
2023-02-12T23:41:36.138Z,15.00
2023-02-12T23:44:04.881Z,15.33
2023-02-12T23:46:33.253Z,17.63
2023-02-12T23:49:01.793Z,18.13
2023-02-12T23:51:30.164Z,19.93
2023-02-12T23:53:58.624Z,16.93
2023-02-12T23:56:27.483Z,17.50
2023-02-12T23:58:58.419Z,17.57
